Time;durP1;ratioP1;P1;durP2;ratioP2;P2;SDS_P1;SDS_P2;PMS_P1;PMS_P2;Temp;Humidity;BMP_temperature;BMP_pressure;BME280_temperature;BME280_humidity;BME280_pressure;Samples;Min_cycle;Max_cycle;Signal;HPM_P1;HPM_P2
2024/01/15 00:01:57;;;;;;;16.08;9.30;;;11.00;76.70;;;;;;5091063;28;20035;-36
2024/01/15 00:04:23;;;;;;;18.38;10.05;;;11.00;77.00;;;;;;5091991;28;20107;-44
2024/01/15 00:06:49;;;;;;;15.68;9.52;;;10.80;78.50;;;;;;5091818;28;20031;-44
2024/01/15 00:09:15;;;;;;;16.30;9.70;;;11.00;78.80;;;;;;5090420;28;20541;-43
2024/01/15 00:11:41;;;;;;;17.83;9.57;;;11.40;77.50;;;;;;5091772;28;20495;-43
2024/01/15 00:14:07;;;;;;;15.48;9.30;;;11.40;76.50;;;;;;5091901;28;20034;-43
2024/01/15 00:16:33;;;;;;;15.10;9.38;;;11.40;76.20;;;;;;5092556;28;20031;-44
2024/01/15 00:18:59;;;;;;;15.98;8.35;;;11.30;76.20;;;;;;5091551;28;20020;-45
2024/01/15 00:21:24;;;;;;;14.63;8.93;;;11.20;76.40;;;;;;5091574;28;20137;-44
2024/01/15 00:23:50;;;;;;;16.27;9.05;;;11.10;76.60;;;;;;5091468;28;20481;-44
2024/01/15 00:26:16;;;;;;;12.98;8.50;;;11.00;76.80;;;;;;5091478;28;20060;-45
2024/01/15 00:28:41;;;;;;;13.75;8.63;;;10.90;78.10;;;;;;5091505;28;20024;-44
2024/01/15 00:31:07;;;;;;;16.73;9.35;;;11.00;78.80;;;;;;5091777;28;20386;-43
2024/01/15 00:33:33;;;;;;;14.60;8.88;;;11.30;78.00;;;;;;5091735;28;20035;-43
2024/01/15 00:35:58;;;;;;;14.68;8.82;;;11.50;76.80;;;;;;5091488;28;20028;-40
2024/01/15 00:38:24;;;;;;;13.60;8.45;;;11.40;76.30;;;;;;5091416;28;20031;-44
2024/01/15 00:40:50;;;;;;;14.30;8.40;;;11.30;76.20;;;;;;5091259;28;20032;-44
2024/01/15 00:43:18;;;;;;;11.82;7.50;;;11.20;76.30;;;;;;5091336;28;20474;-45
2024/01/15 00:45:43;;;;;;;13.15;7.90;;;11.10;76.50;;;;;;5091423;28;20018;-43
2024/01/15 00:48:09;;;;;;;14.18;7.88;;;11.00;76.70;;;;;;5091395;28;20016;-44
2024/01/15 00:50:35;;;;;;;14.80;8.45;;;10.90;77.90;;;;;;5091676;28;20077;-42
2024/01/15 00:53:00;;;;;;;14.32;8.50;;;11.00;78.70;;;;;;5092075;28;20027;-44
2024/01/15 00:55:27;;;;;;;16.23;8.75;;;11.30;78.10;;;;;;5091674;28;20035;-45
2024/01/15 00:57:52;;;;;;;13.95;8.27;;;11.40;76.70;;;;;;5091206;28;20032;-44
2024/01/15 01:00:18;;;;;;;13.05;7.65;;;11.40;76.30;;;;;;5091078;28;20370;-44
2024/01/15 01:02:43;;;;;;;12.45;7.45;;;11.30;76.20;;;;;;5091299;28;20040;-44
2024/01/15 01:05:09;;;;;;;11.60;7.38;;;11.20;76.30;;;;;;5091117;28;20048;-44
2024/01/15 01:07:35;;;;;;;13.40;7.57;;;11.10;76.40;;;;;;5091955;28;20028;-40
2024/01/15 01:10:00;;;;;;;13.18;7.97;;;11.00;76.70;;;;;;5090975;28;20032;-44
2024/01/15 01:12:26;;;;;;;13.25;7.80;;;10.90;77.80;;;;;;5092295;28;20050;-44
2024/01/15 01:14:51;;;;;;;14.48;8.23;;;10.90;78.60;;;;;;5095310;28;20024;-44
2024/01/15 01:17:17;;;;;;;14.05;8.00;;;11.20;78.40;;;;;;5095202;28;20023;-39
2024/01/15 01:19:43;;;;;;;14.23;7.72;;;11.40;76.90;;;;;;5095127;28;20043;-44
2024/01/15 01:22:08;;;;;;;11.88;7.28;;;11.40;76.40;;;;;;5095867;28;20020;-44
2024/01/15 01:24:34;;;;;;;10.90;7.07;;;11.30;76.20;;;;;;5095560;28;20118;-44
2024/01/15 01:26:59;;;;;;;10.85;6.63;;;11.30;76.40;;;;;;5096126;28;20039;-44
2024/01/15 01:29:26;;;;;;;12.45;7.30;;;11.20;76.50;;;;;;5096310;28;20532;-44
2024/01/15 01:31:52;;;;;;;12.75;7.03;;;11.10;76.70;;;;;;5094750;28;20020;-43
2024/01/15 01:34:17;;;;;;;12.25;7.07;;;11.00;77.50;;;;;;5096041;28;20031;-39
2024/01/15 01:36:43;;;;;;;11.13;7.05;;;10.90;78.50;;;;;;5095050;28;20024;-45
2024/01/15 01:39:09;;;;;;;12.55;7.20;;;11.20;78.70;;;;;;5094738;28;20032;-44
2024/01/15 01:41:35;;;;;;;14.43;7.95;;;11.40;77.30;;;;;;5094658;28;20024;-44
2024/01/15 01:44:01;;;;;;;12.00;6.80;;;11.50;76.50;;;;;;5093517;28;20028;-44
2024/01/15 01:46:27;;;;;;;11.45;7.00;;;11.30;76.20;;;;;;5094453;28;20056;-44
2024/01/15 01:48:55;;;;;;;11.43;6.75;;;11.30;76.40;;;;;;5094431;28;20016;-44
2024/01/15 01:51:22;;;;;;;12.65;6.75;;;11.20;76.60;;;;;;5094441;28;20070;-44
2024/01/15 01:53:49;;;;;;;13.63;6.80;;;11.10;76.80;;;;;;5094340;28;20107;-44
2024/01/15 01:56:15;;;;;;;10.88;6.60;;;11.00;77.20;;;;;;5094255;28;20024;-41
2024/01/15 01:58:41;;;;;;;13.25;7.28;;;10.90;78.40;;;;;;5094680;28;20026;-45
2024/01/15 02:01:07;;;;;;;12.82;7.28;;;11.10;78.70;;;;;;5094329;28;20136;-44
2024/01/15 02:03:33;;;;;;;12.15;7.18;;;11.40;77.30;;;;;;5094130;28;20039;-45
2024/01/15 02:06:03;;;;;;;11.95;6.90;;;11.50;76.40;;;;;;5094702;28;20032;-41
2024/01/15 02:08:29;;;;;;;11.40;7.30;;;11.40;76.20;;;;;;5094227;28;20020;-44
2024/01/15 02:10:54;;;;;;;12.05;6.80;;;11.30;76.30;;;;;;5094098;28;20030;-45
2024/01/15 02:13:20;;;;;;;10.30;6.10;;;11.20;76.40;;;;;;5094461;28;20095;-43
2024/01/15 02:15:46;;;;;;;9.80;6.47;;;11.10;76.60;;;;;;5093916;28;20028;-42
2024/01/15 02:18:11;;;;;;;10.30;6.55;;;11.00;76.80;;;;;;5093752;28;20587;-44
2024/01/15 02:20:37;;;;;;;12.15;6.63;;;10.90;78.30;;;;;;5093711;28;20046;-43
2024/01/15 02:23:11;;;;;;;11.63;6.93;;;11.10;78.70;;;;;;5094686;28;20100;-43
2024/01/15 02:25:41;;;;;;;;;;;11.40;77.40;;;;;;5093442;28;20111;-44
2024/01/15 02:28:10;;;;;;;8.80;5.78;;;11.50;76.40;;;;;;5094583;28;19951;-44
2024/01/15 02:30:40;;;;;;;9.82;5.65;;;11.40;76.30;;;;;;5093994;28;20024;-43
2024/01/15 02:33:10;;;;;;;10.70;6.30;;;11.30;76.30;;;;;;5093543;28;20103;-44
2024/01/15 02:35:39;;;;;;;11.32;6.25;;;11.20;76.40;;;;;;5093528;28;20051;-43
2024/01/15 02:38:05;;;;;;;10.82;6.43;;;11.10;76.60;;;;;;5093579;28;20103;-44
2024/01/15 02:40:31;;;;;;;12.32;6.78;;;11.00;76.80;;;;;;5093863;28;20027;-45
2024/01/15 02:42:57;;;;;;;10.82;6.18;;;10.90;78.30;;;;;;5093715;28;20355;-44
2024/01/15 02:45:23;;;;;;;11.48;6.45;;;11.10;78.60;;;;;;5093758;28;20027;-44
2024/01/15 02:47:49;;;;;;;10.55;6.43;;;11.40;77.30;;;;;;5093603;28;20025;-44
2024/01/15 02:50:15;;;;;;;11.60;6.88;;;11.50;76.40;;;;;;5093995;28;20474;-44
2024/01/15 02:52:42;;;;;;;12.07;6.90;;;11.40;76.10;;;;;;5093437;28;20080;-45
2024/01/15 02:55:08;;;;;;;10.68;6.18;;;11.30;76.20;;;;;;5094417;28;20283;-42
2024/01/15 02:57:33;;;;;;;9.52;5.80;;;11.20;76.30;;;;;;5091716;28;20024;-43
2024/01/15 02:59:59;;;;;;;11.77;6.15;;;11.10;76.50;;;;;;5093110;28;20031;-44
2024/01/15 03:02:25;;;;;;;12.00;6.38;;;11.00;76.80;;;;;;5093072;28;20039;-44
2024/01/15 03:04:50;;;;;;;11.52;6.15;;;10.90;78.20;;;;;;5093156;28;20020;-43
2024/01/15 03:07:17;;;;;;;11.27;6.57;;;11.10;78.70;;;;;;5093537;28;20028;-44
2024/01/15 03:09:43;;;;;;;11.82;6.90;;;11.40;77.50;;;;;;5092871;28;20016;-39
2024/01/15 03:12:08;;;;;;;11.35;6.25;;;11.50;76.50;;;;;;5092973;28;20679;-44
2024/01/15 03:14:35;;;;;;;8.57;5.63;;;11.40;76.10;;;;;;5093111;28;20482;-44
2024/01/15 03:17:01;;;;;;;10.60;5.80;;;11.30;76.20;;;;;;5092676;28;20039;-44
2024/01/15 03:19:27;;;;;;;10.32;5.40;;;11.30;76.40;;;;;;5092603;28;20036;-42
2024/01/15 03:21:52;;;;;;;9.23;5.80;;;11.10;76.50;;;;;;5092565;28;20024;-44
2024/01/15 03:24:18;;;;;;;10.55;6.53;;;11.00;76.70;;;;;;5092416;28;20119;-44
2024/01/15 03:26:44;;;;;;;10.98;6.78;;;10.90;78.10;;;;;;5092546;28;20478;-44
2024/01/15 03:29:09;;;;;;;10.80;6.13;;;11.00;78.60;;;;;;5092897;28;20148;-44
2024/01/15 03:31:35;;;;;;;11.32;6.28;;;11.40;77.80;;;;;;5092556;28;20409;-44
2024/01/15 03:34:01;;;;;;;10.50;6.28;;;11.50;76.60;;;;;;5092323;28;20028;-44
2024/01/15 03:36:26;;;;;;;11.63;6.57;;;11.40;76.30;;;;;;5092854;28;20537;-42
2024/01/15 03:38:52;;;;;;;10.63;5.70;;;11.40;76.20;;;;;;5092271;28;20502;-44
2024/01/15 03:41:18;;;;;;;10.43;6.28;;;11.20;76.40;;;;;;5092268;28;20040;-42
2024/01/15 03:43:43;;;;;;;10.52;5.38;;;11.20;76.50;;;;;;5092137;28;20029;-43
2024/01/15 03:46:09;;;;;;;9.70;6.05;;;11.00;76.70;;;;;;5092235;28;20019;-44
2024/01/15 03:48:34;;;;;;;10.77;6.28;;;10.90;78.00;;;;;;5092201;28;20020;-41
2024/01/15 03:51:00;;;;;;;9.68;6.28;;;11.00;78.60;;;;;;5093088;28;20063;-44
2024/01/15 03:53:26;;;;;;;10.40;6.10;;;11.30;78.00;;;;;;5092046;28;20024;-44
2024/01/15 03:55:52;;;;;;;11.70;6.55;;;11.50;76.80;;;;;;5092044;28;20481;-44
2024/01/15 03:58:17;;;;;;;9.38;5.75;;;11.40;76.30;;;;;;5091900;28;20077;-44
2024/01/15 04:00:43;;;;;;;11.30;6.22;;;11.30;76.30;;;;;;5091941;28;20079;-44
2024/01/15 04:03:09;;;;;;;10.00;5.65;;;11.20;76.40;;;;;;5091810;28;20020;-44
2024/01/15 04:05:35;;;;;;;10.27;6.28;;;11.10;76.50;;;;;;5091858;28;20032;-44
2024/01/15 04:08:01;;;;;;;11.45;6.57;;;11.00;76.80;;;;;;5091757;28;20020;-44
2024/01/15 04:10:26;;;;;;;10.30;6.03;;;10.90;78.00;;;;;;5092328;28;20060;-44
2024/01/15 04:12:52;;;;;;;10.95;6.38;;;11.00;78.70;;;;;;5092164;28;20365;-42
2024/01/15 04:15:18;;;;;;;10.95;6.03;;;11.30;78.20;;;;;;5092297;28;20024;-42
2024/01/15 04:17:43;;;;;;;11.77;6.65;;;11.50;76.90;;;;;;5091949;28;20024;-44
2024/01/15 04:20:09;;;;;;;10.68;5.82;;;11.40;76.50;;;;;;5091846;28;20101;-45
2024/01/15 04:22:35;;;;;;;10.30;5.93;;;11.30;76.30;;;;;;5090125;28;20031;-44
2024/01/15 04:25:02;;;;;;;10.77;6.00;;;11.30;76.50;;;;;;5091480;28;20024;-44
2024/01/15 04:27:27;;;;;;;9.55;5.85;;;11.20;76.70;;;;;;5091466;28;20065;-44
2024/01/15 04:29:53;;;;;;;11.68;6.22;;;11.10;76.90;;;;;;5091470;28;20020;-42
2024/01/15 04:32:19;;;;;;;10.35;6.30;;;10.90;78.00;;;;;;5091744;28;20077;-43
2024/01/15 04:34:44;;;;;;;11.82;6.20;;;11.00;78.80;;;;;;5092274;28;20447;-44
2024/01/15 04:37:10;;;;;;;10.18;6.05;;;11.30;78.50;;;;;;5091678;28;20024;-45
2024/01/15 04:39:36;;;;;;;11.07;6.10;;;11.50;77.10;;;;;;5092132;28;20164;-41
2024/01/15 04:42:02;;;;;;;10.80;5.72;;;11.40;76.50;;;;;;5091865;28;20024;-44
2024/01/15 04:44:28;;;;;;;9.88;5.85;;;11.30;76.40;;;;;;5091280;28;20497;-44
2024/01/15 04:46:53;;;;;;;8.77;5.70;;;11.20;76.60;;;;;;5092538;28;20024;-44
2024/01/15 04:49:19;;;;;;;10.20;5.55;;;11.20;76.80;;;;;;5098128;28;20031;-44
2024/01/15 04:51:44;;;;;;;9.75;5.85;;;11.10;77.00;;;;;;5099170;28;20023;-44
2024/01/15 04:54:11;;;;;;;9.15;5.53;;;10.90;78.00;;;;;;5098348;28;20028;-44
2024/01/15 04:56:37;;;;;;;11.10;5.82;;;11.00;78.90;;;;;;5097803;28;20019;-44
2024/01/15 04:59:02;;;;;;;9.68;5.63;;;11.20;78.50;;;;;;5097911;28;20081;-44
2024/01/15 05:01:32;;;;;;;8.57;5.07;;;11.40;77.10;;;;;;5098611;28;20448;-44
2024/01/15 05:03:58;;;;;;;9.48;5.63;;;11.40;77.30;;;;;;5098943;28;20040;-45
2024/01/15 05:06:23;;;;;;;10.38;5.45;;;11.40;76.60;;;;;;5097975;28;20052;-44
2024/01/15 05:08:49;;;;;;;10.57;5.43;;;11.20;76.60;;;;;;5097766;28;20022;-44
2024/01/15 05:11:15;;;;;;;9.32;5.78;;;11.20;76.80;;;;;;5098261;28;20055;-42
2024/01/15 05:13:40;;;;;;;10.98;6.18;;;11.10;77.10;;;;;;5098456;28;20031;-42
2024/01/15 05:16:06;;;;;;;9.50;5.50;;;10.90;78.10;;;;;;5098011;28;20099;-44
2024/01/15 05:18:32;;;;;;;7.97;5.20;;;11.00;78.90;;;;;;5097924;28;20039;-44
2024/01/15 05:20:57;;;;;;;9.15;5.95;;;11.20;78.70;;;;;;5097853;28;20506;-44
2024/01/15 05:23:23;;;;;;;8.45;5.70;;;11.40;77.40;;;;;;5098571;28;20390;-44
2024/01/15 05:25:48;;;;;;;9.40;5.75;;;11.40;76.70;;;;;;5097520;28;20110;-45
2024/01/15 05:28:14;;;;;;;9.20;5.70;;;11.30;76.70;;;;;;5097511;28;20428;-45
2024/01/15 05:30:40;;;;;;;9.70;5.25;;;11.20;76.80;;;;;;5097736;28;20028;-44
2024/01/15 05:33:07;;;;;;;8.90;5.30;;;11.20;77.00;;;;;;5097610;28;20446;-41
2024/01/15 05:35:34;;;;;;;9.25;5.10;;;11.10;77.20;;;;;;5096498;28;20067;-43
2024/01/15 05:38:00;;;;;;;9.35;5.20;;;10.90;78.20;;;;;;5098591;28;20020;-44
2024/01/15 05:40:26;;;;;;;15.77;9.27;;;11.00;79.10;;;;;;5097354;28;20022;-44
2024/01/15 05:42:51;;;;;;;16.27;8.77;;;11.30;77.20;;;;;;5097589;28;20462;-40
2024/01/15 05:45:17;;;;;;;14.88;8.32;;;11.50;75.30;;;;;;5097595;28;20024;-44
2024/01/15 05:47:43;;;;;;;15.45;8.73;;;11.50;75.00;;;;;;5097395;28;20016;-44
2024/01/15 05:50:10;;;;;;;12.73;7.65;;;11.40;75.20;;;;;;5097524;28;20398;-44
2024/01/15 05:52:36;;;;;;;16.20;7.78;;;11.30;75.50;;;;;;5097280;28;20067;-45
2024/01/15 05:55:02;;;;;;;13.20;7.35;;;11.20;75.60;;;;;;5098224;28;20102;-44
2024/01/15 05:57:28;;;;;;;14.98;8.55;;;11.20;76.00;;;;;;5097422;28;20504;-44
2024/01/15 05:59:53;;;;;;;16.75;8.05;;;11.10;77.10;;;;;;5093319;28;20060;-45
2024/01/15 06:02:20;;;;;;;14.25;8.35;;;11.20;78.40;;;;;;5094334;28;20024;-43
2024/01/15 06:04:46;;;;;;;14.95;8.35;;;11.50;77.10;;;;;;5111004;28;20058;-43
2024/01/15 06:07:11;;;;;;;14.43;7.88;;;11.60;75.80;;;;;;5094058;28;20438;-44
2024/01/15 06:09:38;;;;;;;14.35;7.60;;;11.60;75.50;;;;;;5094388;28;20020;-44
2024/01/15 06:12:04;;;;;;;11.85;6.97;;;11.50;75.50;;;;;;5096312;28;20031;-44
2024/01/15 06:14:30;;;;;;;11.88;6.93;;;11.50;75.70;;;;;;5094264;28;20099;-44
2024/01/15 06:16:55;;;;;;;12.68;7.25;;;11.40;75.80;;;;;;5093955;28;20118;-41
2024/01/15 06:19:21;;;;;;;14.98;7.75;;;11.30;76.00;;;;;;5093850;28;20016;-45
2024/01/15 06:21:47;;;;;;;12.73;7.35;;;11.20;77.20;;;;;;5093773;28;20090;-44
2024/01/15 06:24:13;;;;;;;11.88;7.82;;;11.30;77.70;;;;;;5093711;28;20399;-45
2024/01/15 06:26:39;;;;;;;13.35;7.03;;;11.60;76.90;;;;;;5093902;28;20052;-44
2024/01/15 06:29:05;;;;;;;14.38;7.57;;;11.70;75.70;;;;;;5093748;28;20058;-41
2024/01/15 06:31:30;;;;;;;12.50;7.20;;;11.70;75.50;;;;;;5093778;28;20024;-44
2024/01/15 06:33:56;;;;;;;13.10;6.60;;;11.60;75.50;;;;;;5093609;28;20496;-45
2024/01/15 06:36:22;;;;;;;12.02;6.40;;;11.50;75.60;;;;;;5093431;28;20024;-43
2024/01/15 06:38:47;;;;;;;11.30;6.15;;;11.40;75.80;;;;;;5093465;28;20021;-44
2024/01/15 06:41:13;;;;;;;11.65;6.82;;;11.30;75.90;;;;;;5093572;28;20024;-45
2024/01/15 06:43:39;;;;;;;13.30;6.68;;;11.20;77.20;;;;;;5093373;28;20417;-45
2024/01/15 06:46:04;;;;;;;14.48;7.30;;;11.30;77.70;;;;;;5093327;28;20178;-45
2024/01/15 06:48:30;;;;;;;11.07;6.53;;;11.60;77.10;;;;;;5093235;28;20544;-45
2024/01/15 06:50:56;;;;;;;11.43;6.50;;;11.70;75.90;;;;;;5093255;28;20032;-44
2024/01/15 06:53:21;;;;;;;9.70;6.15;;;11.60;75.60;;;;;;5092997;28;20024;-44
2024/01/15 06:55:47;;;;;;;11.40;5.80;;;11.60;75.70;;;;;;5093209;28;20050;-44
2024/01/15 06:58:13;;;;;;;8.52;5.32;;;11.50;75.80;;;;;;5093522;28;20028;-44
2024/01/15 07:00:38;;;;;;;10.60;5.97;;;11.40;75.90;;;;;;5093546;28;20035;-44
2024/01/15 07:03:04;;;;;;;10.18;5.80;;;11.30;76.20;;;;;;5092953;28;20020;-41
2024/01/15 07:05:30;;;;;;;11.77;6.00;;;11.20;77.40;;;;;;5093030;28;20047;-44
2024/01/15 07:07:56;;;;;;;10.68;6.20;;;11.30;78.80;;;;;;5093101;28;20103;-44
2024/01/15 07:10:22;;;;;;;9.65;5.75;;;11.60;77.30;;;;;;5092482;28;20024;-43
2024/01/15 07:12:47;;;;;;;11.20;6.20;;;11.70;76.10;;;;;;5091480;28;20035;-44
2024/01/15 07:15:14;;;;;;;9.07;5.47;;;11.60;75.70;;;;;;5092753;28;20032;-44
2024/01/15 07:17:40;;;;;;;8.60;5.65;;;11.50;75.70;;;;;;5092629;28;20390;-44
2024/01/15 07:20:09;;;;;;;9.15;5.32;;;11.50;75.90;;;;;;5092892;28;20031;-44
2024/01/15 07:22:37;;;;;;;9.40;5.70;;;11.40;76.00;;;;;;5092982;28;20053;-43
2024/01/15 07:25:04;;;;;;;9.25;5.53;;;11.30;76.20;;;;;;5092705;28;20065;-45
2024/01/15 07:27:31;;;;;;;7.95;5.13;;;11.10;77.50;;;;;;5092658;28;20024;-38
2024/01/15 07:29:57;;;;;;;9.05;5.40;;;11.30;78.10;;;;;;5092399;28;20024;-43
2024/01/15 07:32:22;;;;;;;9.95;5.30;;;11.50;77.20;;;;;;5092641;28;20031;-44
2024/01/15 07:34:48;;;;;;;8.73;5.07;;;11.70;76.20;;;;;;5092488;28;20393;-44
2024/01/15 07:37:14;;;;;;;8.32;5.20;;;11.60;75.80;;;;;;5092665;28;20024;-44
2024/01/15 07:39:40;;;;;;;10.38;5.45;;;11.50;75.90;;;;;;5092301;28;20039;-44
2024/01/15 07:42:05;;;;;;;8.98;4.80;;;11.40;76.00;;;;;;5092329;28;20059;-44
2024/01/15 07:44:31;;;;;;;8.18;4.75;;;11.40;76.20;;;;;;5092124;28;20024;-44
2024/01/15 07:46:57;;;;;;;9.77;6.13;;;11.30;76.40;;;;;;5092862;28;20031;-44
2024/01/15 07:49:23;;;;;;;10.73;5.95;;;11.20;75.40;;;;;;5092727;28;20505;-45
2024/01/15 07:51:49;;;;;;;14.02;6.13;;;11.30;76.30;;;;;;5092892;28;20032;-45
2024/01/15 07:54:14;;;;;;;8.82;5.72;;;11.60;75.90;;;;;;5091917;28;20459;-42
2024/01/15 07:57:03;;;;;;;10.40;5.75;;;11.70;75.10;;;;;;5091934;28;20028;-43
2024/01/15 07:59:29;;;;;;;10.52;5.68;;;11.60;74.90;;;;;;5093439;28;20023;-45
2024/01/15 08:01:54;;;;;;;9.60;5.60;;;11.60;75.20;;;;;;5092058;28;20024;-45
2024/01/15 08:04:21;;;;;;;8.93;5.43;;;11.60;75.50;;;;;;5092498;28;20019;-45
2024/01/15 08:06:47;;;;;;;9.32;5.15;;;11.50;75.70;;;;;;5092381;28;20141;-41
2024/01/15 08:09:13;;;;;;;8.80;5.20;;;11.50;76.00;;;;;;5092171;28;20049;-41
2024/01/15 08:11:41;;;;;;;8.63;5.55;;;11.40;77.50;;;;;;5092652;28;20057;-45
2024/01/15 08:14:07;;;;;;;9.55;5.20;;;11.50;77.80;;;;;;5091880;28;20494;-42
2024/01/15 08:16:32;;;;;;;8.98;5.03;;;11.80;76.80;;;;;;5091686;28;20157;-45
2024/01/15 08:18:58;;;;;;;8.70;4.90;;;11.90;76.00;;;;;;5091654;28;20032;-45
2024/01/15 08:21:24;;;;;;;8.23;5.00;;;11.90;75.80;;;;;;5091689;28;20029;-45
2024/01/15 08:23:50;;;;;;;6.93;4.22;;;11.80;76.00;;;;;;5092412;28;20487;-45
2024/01/15 08:26:15;;;;;;;6.95;4.20;;;11.80;76.00;;;;;;5092384;28;20496;-45
2024/01/15 08:28:41;;;;;;;7.05;4.18;;;11.70;76.10;;;;;;5091792;28;20032;-45
2024/01/15 08:31:07;;;;;;;9.90;5.03;;;11.70;76.20;;;;;;5091589;28;20047;-44
2024/01/15 08:33:32;;;;;;;7.70;4.72;;;11.60;77.60;;;;;;5092037;28;20028;-45
2024/01/15 08:35:58;;;;;;;8.13;4.63;;;11.70;77.80;;;;;;5092388;28;20115;-45
2024/01/15 08:38:25;;;;;;;9.63;4.75;;;12.00;76.80;;;;;;5091201;28;20478;-45
2024/01/15 08:40:53;;;;;;;8.98;4.70;;;12.10;76.00;;;;;;5091395;28;20085;-45
2024/01/15 08:43:18;;;;;;;7.13;4.57;;;12.00;76.50;;;;;;5091782;28;20052;-44
2024/01/15 08:45:45;;;;;;;8.02;4.43;;;12.00;75.90;;;;;;5090035;28;20442;-45
2024/01/15 08:48:10;;;;;;;7.60;3.90;;;12.00;75.90;;;;;;5091190;28;20020;-45
2024/01/15 08:50:36;;;;;;;7.85;4.18;;;11.90;76.00;;;;;;5092136;28;20482;-43
2024/01/15 08:53:02;;;;;;;6.47;4.28;;;11.80;76.00;;;;;;5091022;28;20091;-45
2024/01/15 08:55:28;;;;;;;6.65;4.13;;;11.80;77.30;;;;;;5091264;28;20470;-43
2024/01/15 08:57:54;;;;;;;9.70;4.85;;;11.90;77.80;;;;;;5091178;28;20031;-43
2024/01/15 09:00:19;;;;;;;7.20;4.10;;;12.20;76.60;;;;;;5091162;28;20024;-44
2024/01/15 09:02:45;;;;;;;8.38;4.40;;;12.30;75.90;;;;;;5091020;28;20099;-45
2024/01/15 09:05:11;;;;;;;6.40;3.63;;;12.20;75.60;;;;;;5091869;28;20027;-45
2024/01/15 09:07:36;;;;;;;5.40;3.83;;;12.20;75.70;;;;;;5091098;28;20028;-45
2024/01/15 09:10:02;;;;;;;6.75;3.70;;;12.10;75.70;;;;;;5091084;28;20073;-45
2024/01/15 09:12:28;;;;;;;6.47;3.58;;;12.10;75.80;;;;;;5077730;28;20040;-45
2024/01/15 09:14:53;;;;;;;6.38;3.63;;;12.00;75.90;;;;;;5091109;28;20020;-44
2024/01/15 09:17:21;;;;;;;7.22;3.70;;;11.90;77.00;;;;;;5090986;28;20050;-45
2024/01/15 09:19:47;;;;;;;7.10;4.13;;;12.00;77.40;;;;;;5091203;28;20480;-44
2024/01/15 09:22:14;;;;;;;6.45;4.13;;;12.30;76.40;;;;;;5090896;28;20107;-45
2024/01/15 09:24:42;;;;;;;6.18;3.58;;;12.40;75.60;;;;;;5090906;28;20031;-45
2024/01/15 09:27:08;;;;;;;6.13;3.47;;;12.30;75.30;;;;;;5091326;28;20031;-45
2024/01/15 09:29:36;;;;;;;5.43;3.50;;;12.30;75.40;;;;;;5090924;28;20032;-45
2024/01/15 09:32:03;;;;;;;7.55;3.78;;;12.30;75.50;;;;;;5090896;28;20020;-45
2024/01/15 09:34:28;;;;;;;6.63;3.70;;;12.20;75.50;;;;;;5093727;28;20038;-45
2024/01/15 09:36:54;;;;;;;7.25;3.83;;;12.20;75.70;;;;;;5094715;28;20448;-45
2024/01/15 09:39:20;;;;;;;6.90;3.97;;;12.10;76.60;;;;;;5093593;28;20028;-45
2024/01/15 09:41:46;;;;;;;6.97;3.70;;;12.20;77.00;;;;;;5094662;28;20035;-43
2024/01/15 09:44:12;;;;;;;4.93;3.25;;;12.50;76.00;;;;;;5094960;28;20108;-45
2024/01/15 09:46:38;;;;;;;6.07;3.42;;;12.50;75.20;;;;;;5094360;28;20035;-44
2024/01/15 09:49:05;;;;;;;6.47;3.40;;;12.50;75.10;;;;;;5095533;28;20017;-45
2024/01/15 09:51:32;;;;;;;4.80;3.05;;;12.50;75.10;;;;;;5094977;28;20093;-45
2024/01/15 09:53:58;;;;;;;6.57;3.67;;;12.50;75.10;;;;;;5094718;28;20068;-45
2024/01/15 09:56:24;;;;;;;5.53;2.95;;;12.40;75.10;;;;;;5094353;28;20024;-45
2024/01/15 09:58:53;;;;;;;5.25;3.20;;;12.40;75.20;;;;;;5094292;28;20340;-45
2024/01/15 10:01:21;;;;;;;6.40;3.33;;;12.30;76.10;;;;;;5094125;28;20383;-44
2024/01/15 10:03:46;;;;;;;5.95;3.22;;;12.40;76.50;;;;;;5094219;28;20024;-45
2024/01/15 10:06:19;;;;;;;5.13;3.33;;;12.70;75.50;;;;;;5095006;28;20069;-45
2024/01/15 10:08:50;;;;;;;5.53;3.17;;;12.70;74.70;;;;;;5093451;28;20405;-45
2024/01/15 10:11:16;;;;;;;4.43;2.92;;;12.70;74.70;;;;;;5094597;28;20410;-45
2024/01/15 10:13:44;;;;;;;4.32;2.70;;;12.70;74.70;;;;;;5093973;28;20020;-46
2024/01/15 10:16:10;;;;;;;5.43;2.85;;;12.70;74.70;;;;;;5063693;28;20062;-44
2024/01/15 10:18:36;;;;;;;5.75;2.92;;;12.70;74.70;;;;;;5093888;28;20397;-45
2024/01/15 10:21:03;;;;;;;6.63;3.33;;;12.60;74.70;;;;;;5093866;28;20020;-44
2024/01/15 10:23:31;;;;;;;7.15;3.97;;;12.50;75.60;;;;;;5093908;28;20032;-44
2024/01/15 10:25:57;;;;;;;6.03;3.30;;;12.60;75.90;;;;;;5094498;28;20052;-44
2024/01/15 10:28:26;;;;;;;6.57;3.25;;;12.90;75.70;;;;;;5093513;28;20136;-44
2024/01/15 10:30:54;;;;;;;4.32;2.83;;;13.00;74.20;;;;;;5093610;28;20398;-45
2024/01/15 10:33:25;;;;;;;5.00;3.00;;;12.90;74.10;;;;;;5094508;28;20035;-44
2024/01/15 10:35:55;;;;;;;4.00;2.50;;;12.90;74.20;;;;;;5094042;28;20028;-45
2024/01/15 10:38:22;;;;;;;4.88;2.80;;;12.90;74.10;;;;;;5093542;28;20105;-45
2024/01/15 10:40:50;;;;;;;4.30;2.70;;;12.90;74.20;;;;;;5093433;28;20027;-45
2024/01/15 10:43:17;;;;;;;5.30;3.08;;;12.80;74.20;;;;;;5093470;28;20016;-43
2024/01/15 10:45:45;;;;;;;5.93;3.28;;;12.70;75.10;;;;;;5092708;28;20025;-45
2024/01/15 10:48:10;;;;;;;5.90;3.40;;;12.80;75.40;;;;;;5093227;28;20104;-44
2024/01/15 10:50:36;;;;;;;4.35;2.58;;;13.10;74.40;;;;;;5093418;28;20099;-45
2024/01/15 10:53:03;;;;;;;4.65;2.67;;;13.10;73.90;;;;;;5093216;28;20472;-45
2024/01/15 10:55:32;;;;;;;4.45;2.88;;;13.10;73.80;;;;;;5093165;28;20035;-44
2024/01/15 10:57:58;;;;;;;4.80;2.78;;;13.00;73.80;;;;;;5093051;28;20099;-44
2024/01/15 11:00:25;;;;;;;4.88;2.67;;;13.10;73.80;;;;;;5093196;28;20397;-45
2024/01/15 11:02:51;;;;;;;4.47;2.40;;;13.00;73.80;;;;;;5093060;28;20028;-45
2024/01/15 11:05:18;;;;;;;4.97;3.05;;;13.00;73.80;;;;;;5093108;28;20077;-45
2024/01/15 11:07:44;;;;;;;5.32;2.80;;;12.90;74.60;;;;;;5092975;28;20067;-44
2024/01/15 11:10:40;;;;;;;5.25;3.00;;;13.00;75.10;;;;;;5092861;28;20497;-45
2024/01/15 11:13:09;;;;;;;4.47;2.78;;;13.30;74.20;;;;;;5092924;28;20012;-44
2024/01/15 11:15:55;;;;;;;3.97;2.75;;;13.20;73.60;;;;;;5092908;28;20016;-44
2024/01/15 11:18:22;;;;;;;4.03;2.53;;;13.20;73.50;;;;;;5092547;28;20067;-45
2024/01/15 11:21:35;;;;;;;3.83;2.55;;;13.20;73.50;;;;;;5092745;28;20023;-45
2024/01/15 11:24:02;;;;;;;3.78;2.40;;;13.20;73.50;;;;;;5091949;28;20494;-44
2024/01/15 11:26:43;;;;;;;4.63;2.63;;;13.20;73.60;;;;;;5092536;28;20060;-44
2024/01/15 11:29:27;;;;;;;6.75;3.13;;;13.10;74.00;;;;;;5092532;28;20020;-45
2024/01/15 11:32:02;;;;;;;4.50;2.57;;;13.10;74.80;;;;;;5093367;28;20481;-44
2024/01/15 11:35:03;;;;;;;4.55;2.92;;;13.30;74.30;;;;;;5092852;28;20736;-44
2024/01/15 11:37:49;;;;;;;4.90;2.85;;;13.40;73.30;;;;;;5091049;28;20097;-45
2024/01/15 11:40:18;;;;;;;4.70;3.15;;;13.30;73.30;;;;;;5092299;28;20028;-44
2024/01/15 11:42:45;;;;;;;3.92;2.50;;;13.30;73.30;;;;;;5092245;28;20024;-45
2024/01/15 11:45:11;;;;;;;4.90;2.60;;;13.30;73.30;;;;;;5092310;28;20478;-44
2024/01/15 11:47:59;;;;;;;4.35;2.70;;;13.30;73.30;;;;;;5092359;28;20043;-40
2024/01/15 11:50:30;;;;;;;4.43;2.70;;;13.30;73.30;;;;;;5091838;28;20383;-44
2024/01/15 11:53:03;;;;;;;4.50;2.70;;;13.20;74.30;;;;;;5092136;28;20367;-44
2024/01/15 11:55:38;;;;;;;5.78;2.97;;;13.30;74.70;;;;;;5092150;28;20133;-44
2024/01/15 11:58:09;;;;;;;4.50;2.88;;;13.50;73.70;;;;;;5091114;28;20024;-45
2024/01/15 12:00:39;;;;;;;3.80;2.67;;;13.50;73.20;;;;;;5092968;28;20077;-44
2024/01/15 12:03:05;;;;;;;4.15;2.67;;;13.50;73.30;;;;;;5091894;28;20055;-44
2024/01/15 12:05:30;;;;;;;4.20;2.53;;;13.50;73.30;;;;;;5092543;28;20020;-45
2024/01/15 12:07:57;;;;;;;3.55;2.30;;;13.40;73.20;;;;;;5091921;28;20020;-45
2024/01/15 12:10:23;;;;;;;4.40;2.40;;;13.40;73.20;;;;;;5091980;28;20022;-43
2024/01/15 12:13:24;;;;;;;4.07;2.70;;;13.40;73.20;;;;;;5091822;28;20032;-44
2024/01/15 12:15:50;;;;;;;4.30;2.88;;;13.30;74.30;;;;;;5091629;28;20052;-44
2024/01/15 12:18:18;;;;;;;6.82;3.83;;;13.40;74.60;;;;;;5091553;28;20085;-44
2024/01/15 12:20:46;;;;;;;7.63;3.88;;;13.60;73.60;;;;;;5091629;28;20028;-44
2024/01/15 12:23:13;;;;;;;5.82;4.07;;;13.50;73.20;;;;;;5092333;28;20420;-44
2024/01/15 12:25:39;;;;;;;5.03;3.30;;;13.50;73.30;;;;;;5091640;28;20077;-45
2024/01/15 12:28:05;;;;;;;5.05;3.47;;;13.50;73.60;;;;;;5091543;28;20020;-43
2024/01/15 12:30:33;;;;;;;5.75;3.63;;;13.50;73.30;;;;;;5091629;28;20099;-44
2024/01/15 12:33:03;;;;;;;4.45;3.08;;;13.40;73.20;;;;;;5091487;28;20023;-44
2024/01/15 12:35:30;;;;;;;6.65;3.85;;;13.40;73.60;;;;;;5091377;28;20419;-43
2024/01/15 12:37:55;;;;;;;4.57;3.15;;;13.30;74.40;;;;;;5091415;28;20020;-44
2024/01/15 12:40:23;;;;;;;6.43;3.70;;;13.40;74.70;;;;;;5092331;28;20035;-44
2024/01/15 12:42:49;;;;;;;6.50;3.60;;;13.60;73.70;;;;;;5091769;28;20020;-45